Lincoln, NE

01:11 PM CDT del 01 Agosto 2015 (GMT -0500)
Capitol Beach | | Change Station
CLOSE
Current Station
Stazione meteo personale
Location: Lincoln, NE
Altitudine: 1134 ft
Stazioni meteo nelle vicinanze

Alt. 1134 ft 40.82 °N, 96.73 °W | Updated 2 seconds ago

Clear
Sereno
84.4 °F
Sembra 87 °F
N
3.0
Vento Variabile Vento da SE
Gusts 9.0 mph

Oggi
Massima -- | Minima -- °F
--% Possibilità di precip.
Ieri
Massima -- | Minima -- °F
Precip. -- in
6:23 AM 8:42 PM
Luna piena, 98% visible
Pressione 29.99 in
Visibilità 10.0 miglia
Nuvole Sereno
Indice di calore 87 °F
Punto di rugiada 66 °F
Umidità 54%
Piovosità 0.00 in
Spessore del manto nevoso Non disponibile.
Raggi UV 11 fuori da 12
Polline 6.90 fuori da 12
Qualità dell'aria Non disponibile.
Flu Activity Non disponibile.
METAR KLNK 011754Z 17008KT 10SM CLR 26/17 A3002 RMK AO2 SLP154 60000 T02610172 10261 20206 56016

More Conditions Fewer Conditions

Pressione 29.99 in
Visibilità 10.0 miglia
Nuvole Sereno
Indice di calore 87 °F
Punto di rugiada 66 °F
Umidità 54%
Piovosità 0.00 in
Spessore del manto nevoso Non disponibile.
Raggi UV 11 fuori da 12
Polline 6.90 fuori da 12
Qualità dell'aria Non disponibile.
Flu Activity Non disponibile.
METAR KLNK 011754Z 17008KT 10SM CLR 26/17 A3002 RMK AO2 SLP154 60000 T02610172 10261 20206 56016

More Conditions Fewer Conditions

10-Day Weather Forecast

×

Almanac

Astronomia

Aug. 01, 2015 Alba Tramonto
Ora attuale
Crepuscolo civile
Crepuscolo nautico
Crepuscolo astronomico
Luna
Estensione della luce visibile
Lunghezza del giorno
Tomorrow will be .
, % of the Moon is Illuminated

Gli estremi di oggi

State Highs State Lows

Community

WunderPhotos

Upload Photos

1,843,012 foto caricate!

WunderBlogs® & News

Nearby

Qualità dell'aria

  Qualità dell'aria Indice AQ Inquinante
Not available.

Profondità neve

Stazione Profondità Altitudine

Attività sismica

Città  Distanza Mag. Data & Ora
Minimo Magnitudo Mostrato è 2.5.

Temperature delle acque costiere

Località Temperatura

Stations

Stazioni meteo nelle vicinanze

Ubicazione della stazione Temp. Raffreddamento del vento Punto di rugiada Umidità Vento Precip. Alt. Aggiornato Tipo